Time;durP1;ratioP1;P1;durP2;ratioP2;P2;SDS_P1;SDS_P2;PMS_P1;PMS_P2;Temp;Humidity;BMP_temperature;BMP_pressure;BME280_temperature;BME280_humidity;BME280_pressure;Samples;Min_cycle;Max_cycle;Signal;HPM_P1;HPM_P2
2024/02/16 00:02:01;;;;;;;;;;;;;;;26.51;20.65;98660.75;5120153;27;19920;-78
2024/02/16 00:04:27;;;;;;;;;;;;;;;26.59;20.34;98658.59;5109401;27;19931;-78
2024/02/16 00:06:53;;;;;;;;;;;;;;;26.66;20.42;98667.66;5107836;27;19971;-78
2024/02/16 00:09:20;;;;;;;;;;;;;;;26.66;20.12;98667.66;5112452;27;19919;-78
2024/02/16 00:11:48;;;;;;;;;;;;;;;26.58;20.34;98671.09;5104630;27;19916;-78
2024/02/16 00:14:14;;;;;;;;;;;;;;;26.56;20.34;98668.69;5108570;27;19927;-78
2024/02/16 00:16:40;;;;;;;;;;;;;;;26.62;20.36;98675.41;5100138;27;19920;-78
2024/02/16 00:19:06;;;;;;;;;;;;;;;26.69;19.89;98675.25;5114139;27;19938;-78
2024/02/16 00:21:32;;;;;;;;;;;;;;;26.70;19.93;98673.22;5119949;27;19919;-78
2024/02/16 00:23:58;;;;;;;;;;;;;;;26.66;19.69;98676.13;5117542;27;19955;-78
2024/02/16 00:26:24;;;;;;;;;;;;;;;26.54;19.85;98670.38;5107732;27;19931;-78
2024/02/16 00:28:51;;;;;;;;;;;;;;;26.50;20.11;98675.28;5110576;27;19919;-78
2024/02/16 00:31:19;;;;;;;;;;;;;;;26.53;19.88;98671.59;5118486;27;19920;-78
2024/02/16 00:33:45;;;;;;;;;;;;;;;26.46;19.84;98666.94;5110081;27;19926;-78
2024/02/16 00:36:11;;;;;;;;;;;;;;;26.45;19.58;98670.97;5106166;27;19939;-78
2024/02/16 00:38:37;;;;;;;;;;;;;;;26.39;19.39;98669.91;5115890;27;20004;-78
2024/02/16 00:41:04;;;;;;;;;;;;;;;26.17;19.64;98667.97;5106423;27;20367;-78
2024/02/16 00:43:30;;;;;;;;;;;;;;;25.73;19.92;98670.03;5110972;27;20427;-78
2024/02/16 00:45:56;;;;;;;;;;;;;;;25.42;20.15;98662.94;5107542;27;19927;-78
2024/02/16 00:48:22;;;;;;;;;;;;;;;25.25;20.48;98659.22;5116951;27;19923;-78
2024/02/16 00:50:50;;;;;;;;;;;;;;;25.19;20.12;98660.94;5122553;27;20209;-78
2024/02/16 00:53:16;;;;;;;;;;;;;;;25.16;20.30;98658.97;5115090;27;20400;-78
2024/02/16 00:55:42;;;;;;;;;;;;;;;25.27;20.18;98651.19;5104041;27;19950;-78
2024/02/16 00:58:08;;;;;;;;;;;;;;;25.19;20.61;98644.09;5109509;27;19934;-78
2024/02/16 01:00:35;;;;;;;;;;;;;;;25.40;20.11;98648.53;5108081;27;20368;-78
2024/02/16 01:03:01;;;;;;;;;;;;;;;25.61;20.22;98652.97;5113740;27;19920;-78
2024/02/16 01:05:27;;;;;;;;;;;;;;;25.70;20.27;98644.78;5108563;27;19924;-78
2024/02/16 01:07:53;;;;;;;;;;;;;;;25.86;20.17;98639.22;5106511;28;19958;-78
2024/02/16 01:10:19;;;;;;;;;;;;;;;25.78;19.88;98634.97;5119784;27;19927;-78
2024/02/16 01:12:45;;;;;;;;;;;;;;;25.74;20.13;98640.66;5098924;28;19916;-78
2024/02/16 01:15:11;;;;;;;;;;;;;;;25.56;20.27;98639.41;5102000;28;20007;-78
2024/02/16 01:17:39;;;;;;;;;;;;;;;25.47;20.77;98637.19;5109741;28;19924;-78
2024/02/16 01:20:05;;;;;;;;;;;;;;;25.63;20.31;98634.47;5098868;28;20018;-78
2024/02/16 01:22:31;;;;;;;;;;;;;;;25.68;19.95;98635.97;5096850;28;20270;-78
2024/02/16 01:24:58;;;;;;;;;;;;;;;25.67;20.75;98634.41;5101340;28;19934;-78
2024/02/16 01:27:24;;;;;;;;;;;;;;;25.51;21.13;98637.13;5113822;28;19919;-78
2024/02/16 01:29:50;;;;;;;;;;;;;;;25.70;20.52;98631.50;5107616;28;19920;-78
2024/02/16 01:32:16;;;;;;;;;;;;;;;25.81;20.69;98632.09;5095880;28;19927;-78
2024/02/16 01:34:43;;;;;;;;;;;;;;;25.89;19.71;98630.72;5089897;28;19926;-78
2024/02/16 01:37:09;;;;;;;;;;;;;;;25.61;19.75;98625.66;5110454;28;20010;-78
2024/02/16 01:39:35;;;;;;;;;;;;;;;25.27;19.88;98623.06;5097318;27;20428;-78
2024/02/16 01:42:02;;;;;;;;;;;;;;;25.13;20.43;98628.94;5103448;28;19924;-78
2024/02/16 01:47:13;;;;;;;;;;;;;;;25.25;20.51;98622.69;5109465;27;20009;-77
2024/02/16 01:49:39;;;;;;;;;;;;;;;25.48;20.81;98621.13;5111013;28;19965;-78
2024/02/16 01:52:06;;;;;;;;;;;;;;;25.72;20.34;98611.41;5115167;27;19919;-78
2024/02/16 01:54:32;;;;;;;;;;;;;;;25.87;20.18;98624.75;5109798;27;20441;-78
2024/02/16 01:56:58;;;;;;;;;;;;;;;25.94;20.28;98616.16;5114068;28;19967;-78
2024/02/16 01:59:24;;;;;;;;;;;;;;;25.68;20.23;98614.28;5113763;28;20362;-78
2024/02/16 02:01:51;;;;;;;;;;;;;;;25.29;20.42;98622.63;5115410;28;19916;-78
2024/02/16 02:04:17;;;;;;;;;;;;;;;25.39;20.43;98619.63;5115810;28;20380;-78
2024/02/16 02:06:43;;;;;;;;;;;;;;;25.66;20.73;98613.91;5105775;28;19916;-78
2024/02/16 02:09:09;;;;;;;;;;;;;;;25.49;20.88;98611.44;5089469;28;19924;-78
2024/02/16 02:11:35;;;;;;;;;;;;;;;25.30;20.98;98610.94;5108313;27;19920;-78
2024/02/16 02:14:01;;;;;;;;;;;;;;;25.51;20.78;98609.00;5104883;28;19922;-78
2024/02/16 02:16:27;;;;;;;;;;;;;;;25.01;21.45;98609.88;5095241;28;19923;-78
2024/02/16 02:18:54;;;;;;;;;;;;;;;25.26;21.69;98612.25;5103868;27;19915;-78
2024/02/16 02:21:20;;;;;;;;;;;;;;;25.17;21.67;98610.00;5105828;27;20343;-78
2024/02/16 02:23:46;;;;;;;;;;;;;;;25.00;21.95;98607.47;5108115;27;20296;-78
2024/02/16 02:26:16;;;;;;;;;;;;;;;24.82;22.09;98610.59;5104284;28;20391;-78
2024/02/16 02:28:43;;;;;;;;;;;;;;;24.97;22.03;98608.38;5111031;28;20052;-78
2024/02/16 02:31:09;;;;;;;;;;;;;;;25.07;21.85;98601.75;5107548;28;19938;-78
2024/02/16 02:33:35;;;;;;;;;;;;;;;25.56;21.95;98605.69;5100321;28;19920;-78
2024/02/16 02:36:01;;;;;;;;;;;;;;;25.73;21.44;98602.53;5103160;28;20384;-78
2024/02/16 02:38:27;;;;;;;;;;;;;;;25.75;21.60;98597.25;5110625;28;19931;-78
2024/02/16 02:40:53;;;;;;;;;;;;;;;25.61;21.64;98602.38;5109764;28;19926;-78
2024/02/16 02:43:21;;;;;;;;;;;;;;;25.65;20.92;98603.09;5105100;28;20015;-78
2024/02/16 02:45:48;;;;;;;;;;;;;;;25.87;21.40;98604.25;5102503;28;20281;-78
2024/02/16 02:48:13;;;;;;;;;;;;;;;25.68;21.00;98603.03;5110589;27;20300;-78
2024/02/16 02:50:39;;;;;;;;;;;;;;;25.27;21.57;98603.41;5085002;28;19927;-78
2024/02/16 02:53:05;;;;;;;;;;;;;;;24.79;22.21;98607.84;5107805;28;19927;-78
2024/02/16 02:55:32;;;;;;;;;;;;;;;25.07;22.60;98608.16;5111385;28;20381;-78
2024/02/16 02:57:58;;;;;;;;;;;;;;;25.25;21.89;98608.63;5104699;28;19927;-78
2024/02/16 03:00:25;;;;;;;;;;;;;;;25.20;22.00;98611.16;5111869;28;19927;-78
2024/02/16 03:02:52;;;;;;;;;;;;;;;25.57;21.65;98610.88;5100729;27;19920;-78
2024/02/16 03:05:19;;;;;;;;;;;;;;;25.60;21.69;98617.66;5112208;28;19924;-78
2024/02/16 03:07:45;;;;;;;;;;;;;;;25.27;21.53;98613.84;5106808;28;19969;-78
2024/02/16 03:10:12;;;;;;;;;;;;;;;25.53;20.97;98617.81;5091798;28;19920;-78
2024/02/16 03:12:38;;;;;;;;;;;;;;;25.64;21.32;98616.38;5112926;27;19923;-78
2024/02/16 03:15:04;;;;;;;;;;;;;;;25.56;21.09;98616.91;5109009;28;20023;-78
2024/02/16 03:17:30;;;;;;;;;;;;;;;25.82;21.17;98622.44;5102827;27;19947;-78
2024/02/16 03:19:56;;;;;;;;;;;;;;;25.70;21.43;98620.25;5103824;27;20358;-78
2024/02/16 03:22:22;;;;;;;;;;;;;;;25.76;21.79;98617.75;5099073;28;19920;-78
2024/02/16 03:24:48;;;;;;;;;;;;;;;25.70;21.87;98617.44;5110141;27;19934;-78
2024/02/16 03:27:14;;;;;;;;;;;;;;;25.67;21.85;98618.31;5109122;27;19972;-78
2024/02/16 03:29:40;;;;;;;;;;;;;;;25.41;22.15;98614.34;5107676;28;20012;-78
2024/02/16 03:32:06;;;;;;;;;;;;;;;25.18;22.22;98611.56;5105236;28;19919;-78
2024/02/16 03:34:33;;;;;;;;;;;;;;;25.10;22.69;98609.31;5104324;27;20316;-78
2024/02/16 03:36:59;;;;;;;;;;;;;;;24.74;22.93;98617.50;5112831;27;20333;-78
2024/02/16 03:39:25;;;;;;;;;;;;;;;24.57;23.33;98618.63;5099738;28;19971;-78
2024/02/16 03:41:51;;;;;;;;;;;;;;;24.44;23.47;98621.19;5094112;28;19927;-78
2024/02/16 03:44:17;;;;;;;;;;;;;;;24.59;23.40;98616.16;5108337;28;20304;-78
2024/02/16 03:46:43;;;;;;;;;;;;;;;24.63;23.24;98614.09;5106993;28;20026;-78
2024/02/16 03:49:10;;;;;;;;;;;;;;;24.44;23.40;98609.97;5108163;28;19915;-78
2024/02/16 03:51:37;;;;;;;;;;;;;;;24.26;23.64;98620.66;5105976;28;19939;-78
2024/02/16 03:54:04;;;;;;;;;;;;;;;24.51;23.63;98620.28;5111309;28;20348;-78
2024/02/16 03:56:30;;;;;;;;;;;;;;;23.87;24.21;98614.75;5109143;28;19927;-78
2024/02/16 03:58:56;;;;;;;;;;;;;;;23.92;24.26;98614.28;5099203;28;20360;-78
2024/02/16 04:01:22;;;;;;;;;;;;;;;24.13;24.00;98616.84;5107316;28;20002;-78
2024/02/16 04:03:48;;;;;;;;;;;;;;;23.66;24.55;98615.00;5088954;28;19927;-78
2024/02/16 04:06:14;;;;;;;;;;;;;;;23.96;24.30;98618.63;5105032;28;19920;-78
2024/02/16 04:08:40;;;;;;;;;;;;;;;23.45;24.75;98606.84;5104140;28;19920;-78
2024/02/16 04:11:06;;;;;;;;;;;;;;;23.47;24.90;98610.03;5098088;28;19920;-78
2024/02/16 04:13:32;;;;;;;;;;;;;;;23.26;24.96;98611.00;5102131;28;19939;-78
2024/02/16 04:15:58;;;;;;;;;;;;;;;24.05;24.16;98604.91;5103136;28;20698;-78
2024/02/16 04:18:24;;;;;;;;;;;;;;;24.20;23.70;98605.50;5106585;28;19926;-78
2024/02/16 04:20:50;;;;;;;;;;;;;;;24.29;24.18;98613.41;5107674;28;20281;-78
2024/02/16 04:23:16;;;;;;;;;;;;;;;24.48;23.55;98607.88;5103673;28;19919;-78
2024/02/16 04:25:42;;;;;;;;;;;;;;;24.41;23.58;98605.19;5105135;28;19931;-78
2024/02/16 04:28:09;;;;;;;;;;;;;;;24.24;23.92;98599.84;5087055;28;19922;-78
2024/02/16 04:30:35;;;;;;;;;;;;;;;24.42;23.77;98608.81;5107292;28;19943;-78
2024/02/16 04:33:01;;;;;;;;;;;;;;;24.68;23.20;98603.19;5107379;28;20400;-78
2024/02/16 04:35:27;;;;;;;;;;;;;;;24.66;23.39;98607.63;5110826;28;19971;-78
2024/02/16 04:37:53;;;;;;;;;;;;;;;24.35;23.87;98608.91;5111127;28;19943;-78
2024/02/16 04:40:19;;;;;;;;;;;;;;;24.08;24.17;98610.91;5095986;28;19920;-78
2024/02/16 04:42:45;;;;;;;;;;;;;;;24.35;23.90;98609.72;5106228;28;19935;-78
2024/02/16 04:45:12;;;;;;;;;;;;;;;24.57;23.51;98613.00;5100412;28;19927;-78
2024/02/16 04:47:38;;;;;;;;;;;;;;;24.89;23.23;98610.50;5109565;27;19923;-78
2024/02/16 04:50:05;;;;;;;;;;;;;;;25.08;23.02;98608.97;5114829;28;19920;-78
2024/02/16 04:52:31;;;;;;;;;;;;;;;25.21;22.77;98604.31;5111079;28;19942;-78
2024/02/16 04:54:57;;;;;;;;;;;;;;;25.12;22.86;98604.06;5107734;28;19927;-78
2024/02/16 04:57:23;;;;;;;;;;;;;;;25.28;22.67;98607.78;5117905;27;19927;-78
2024/02/16 04:59:49;;;;;;;;;;;;;;;25.17;22.60;98609.19;5103096;28;19920;-78
2024/02/16 05:02:15;;;;;;;;;;;;;;;24.98;22.50;98610.72;5107367;28;19967;-78
2024/02/16 05:04:41;;;;;;;;;;;;;;;24.90;22.53;98602.88;5102193;28;19925;-78
2024/02/16 05:07:07;;;;;;;;;;;;;;;25.08;22.65;98604.16;5099436;28;19924;-78
2024/02/16 05:09:34;;;;;;;;;;;;;;;24.81;22.85;98606.19;5105778;28;19920;-78
2024/02/16 05:12:00;;;;;;;;;;;;;;;25.41;22.46;98600.28;5113556;28;20360;-78
2024/02/16 05:14:26;;;;;;;;;;;;;;;25.73;21.94;98607.34;5108490;28;19926;-78
2024/02/16 05:16:52;;;;;;;;;;;;;;;25.68;21.73;98602.22;5105096;28;20362;-78
2024/02/16 05:19:18;;;;;;;;;;;;;;;25.93;21.47;98603.28;5104029;27;19928;-78
2024/02/16 05:21:44;;;;;;;;;;;;;;;25.87;21.40;98607.06;5105726;27;19924;-77
2024/02/16 05:24:10;;;;;;;;;;;;;;;25.96;20.94;98610.88;5101701;28;19928;-78
2024/02/16 05:26:36;;;;;;;;;;;;;;;26.06;20.79;98597.81;5111695;28;19924;-78
2024/02/16 05:29:03;;;;;;;;;;;;;;;25.65;21.27;98597.50;5114960;28;19954;-78
2024/02/16 05:31:31;;;;;;;;;;;;;;;25.75;21.34;98602.88;5104808;27;19920;-78
2024/02/16 05:33:57;;;;;;;;;;;;;;;26.03;20.91;98602.28;5106686;28;19920;-78
2024/02/16 05:36:28;;;;;;;;;;;;;;;26.09;20.74;98605.41;5101309;28;19920;-78
2024/02/16 05:38:59;;;;;;;;;;;;;;;26.12;20.75;98601.72;5108952;28;19927;-78
2024/02/16 05:41:25;;;;;;;;;;;;;;;26.18;21.10;98602.00;5115218;28;19920;-78
2024/02/16 05:43:51;;;;;;;;;;;;;;;25.89;21.35;98604.59;5105277;28;19927;-78
2024/02/16 05:46:17;;;;;;;;;;;;;;;25.73;20.95;98607.34;5113629;27;20293;-78
2024/02/16 05:48:44;;;;;;;;;;;;;;;25.80;20.86;98605.19;5107518;27;20365;-78
2024/02/16 05:51:12;;;;;;;;;;;;;;;25.79;21.52;98602.81;5109751;28;19927;-78
2024/02/16 05:53:39;;;;;;;;;;;;;;;26.02;20.92;98606.31;5113155;28;19930;-78
2024/02/16 05:56:05;;;;;;;;;;;;;;;25.90;20.76;98603.38;5103516;28;19931;-78
2024/02/16 05:58:31;;;;;;;;;;;;;;;26.01;20.68;98613.19;5100972;27;19965;-78
2024/02/16 06:00:57;;;;;;;;;;;;;;;25.97;20.58;98614.50;5098862;28;19924;-79
2024/02/16 06:03:23;;;;;;;;;;;;;;;25.92;21.07;98612.19;5098239;27;19926;-78
2024/02/16 06:05:49;;;;;;;;;;;;;;;25.99;20.79;98617.66;5089515;28;19916;-78
2024/02/16 06:08:17;;;;;;;;;;;;;;;26.17;20.43;98615.28;5107524;28;19927;-78
2024/02/16 06:10:43;;;;;;;;;;;;;;;26.08;20.71;98618.66;5098578;28;19968;-78
2024/02/16 06:13:09;;;;;;;;;;;;;;;26.23;20.33;98621.19;5104326;28;19920;-78
2024/02/16 06:15:37;;;;;;;;;;;;;;;26.19;20.22;98623.28;5101697;28;19924;-78
2024/02/16 06:18:03;;;;;;;;;;;;;;;25.98;20.35;98619.69;5094511;28;20437;-78
2024/02/16 06:20:29;;;;;;;;;;;;;;;25.84;20.01;98631.22;5103039;28;19924;-78
2024/02/16 06:22:55;;;;;;;;;;;;;;;25.53;20.73;98632.66;5098265;28;19999;-78
2024/02/16 06:25:21;;;;;;;;;;;;;;;25.37;21.17;98621.25;5096159;28;19925;-78
2024/02/16 06:27:47;;;;;;;;;;;;;;;25.77;21.29;98628.56;5099754;28;19943;-78
2024/02/16 06:30:13;;;;;;;;;;;;;;;25.48;21.99;98635.16;5105811;28;19989;-78
2024/02/16 06:32:40;;;;;;;;;;;;;;;25.58;21.69;98629.31;5110083;28;19927;-78
2024/02/16 06:35:07;;;;;;;;;;;;;;;25.90;21.81;98637.16;5113452;28;19972;-78
2024/02/16 06:37:33;;;;;;;;;;;;;;;25.87;22.23;98633.19;5112776;28;20284;-78
2024/02/16 06:39:59;;;;;;;;;;;;;;;25.88;22.22;98639.59;5111483;28;19916;-78
2024/02/16 06:42:26;;;;;;;;;;;;;;;26.11;21.97;98633.13;5097677;28;20065;-78
2024/02/16 06:44:52;;;;;;;;;;;;;;;26.53;21.54;98641.44;5103982;28;19942;-78
2024/02/16 06:47:18;;;;;;;;;;;;;;;26.89;21.29;98640.59;5108802;28;20399;-78
2024/02/16 06:49:46;;;;;;;;;;;;;;;26.69;21.51;98640.66;5112426;28;19916;-78
2024/02/16 06:52:12;;;;;;;;;;;;;;;26.73;21.63;98642.16;5112627;28;20421;-79
2024/02/16 06:54:38;;;;;;;;;;;;;;;26.98;21.25;98635.94;5113514;28;19924;-78
2024/02/16 06:57:05;;;;;;;;;;;;;;;26.86;21.62;98639.47;5113401;28;20289;-78
2024/02/16 06:59:31;;;;;;;;;;;;;;;26.97;21.80;98631.53;5109949;28;19922;-78
2024/02/16 07:01:57;;;;;;;;;;;;;;;26.87;21.73;98637.41;5093811;28;19915;-78
2024/02/16 07:04:23;;;;;;;;;;;;;;;26.77;21.92;98638.50;5114251;28;20019;-78
2024/02/16 07:06:49;;;;;;;;;;;;;;;26.78;21.90;98638.03;5113559;28;19965;-78
2024/02/16 07:09:15;;;;;;;;;;;;;;;26.80;22.00;98638.41;5114388;28;19976;-78
2024/02/16 07:11:42;;;;;;;;;;;;;;;26.96;22.15;98640.41;5114479;28;20006;-78
2024/02/16 07:14:08;;;;;;;;;;;;;;;27.42;21.74;98626.75;5095554;27;19924;-78
2024/02/16 07:16:34;;;;;;;;;;;;;;;27.73;20.85;98620.66;5093940;28;19955;-78
2024/02/16 07:19:00;;;;;;;;;;;;;;;27.60;20.56;98637.56;5094891;28;19919;-78
2024/02/16 07:21:26;;;;;;;;;;;;;;;27.51;21.12;98633.78;5093826;28;19939;-78
2024/02/16 07:23:52;;;;;;;;;;;;;;;27.55;21.34;98632.47;5093410;28;20296;-78
2024/02/16 07:26:18;;;;;;;;;;;;;;;27.44;21.85;98631.97;5113345;28;19988;-78
2024/02/16 07:28:44;;;;;;;;;;;;;;;27.50;21.23;98629.38;5113823;28;19923;-78
2024/02/16 07:31:11;;;;;;;;;;;;;;;27.71;21.29;98625.97;5114144;28;19916;-78
2024/02/16 07:33:37;;;;;;;;;;;;;;;27.87;21.35;98626.69;5102589;28;19920;-78
2024/02/16 07:36:03;;;;;;;;;;;;;;;27.72;22.07;98619.91;5100589;28;20361;-78
2024/02/16 07:38:29;;;;;;;;;;;;;;;27.75;21.80;98621.03;5093427;28;19939;-78
2024/02/16 07:40:55;;;;;;;;;;;;;;;27.66;21.48;98620.88;5093519;28;20376;-78
2024/02/16 07:43:24;;;;;;;;;;;;;;;27.55;22.33;98629.63;5074989;28;20301;-78
2024/02/16 07:45:53;;;;;;;;;;;;;;;27.57;22.28;98624.34;5098944;28;20281;-78
2024/02/16 07:48:21;;;;;;;;;;;;;;;27.73;22.33;98621.47;5093220;28;19916;-78
2024/02/16 07:50:48;;;;;;;;;;;;;;;27.89;22.57;98627.03;5094037;28;19916;-78
2024/02/16 07:53:14;;;;;;;;;;;;;;;27.74;22.68;98619.44;5094560;28;19920;-78
2024/02/16 07:55:40;;;;;;;;;;;;;;;28.04;21.88;98619.78;5093393;28;20011;-79
2024/02/16 07:58:06;;;;;;;;;;;;;;;28.03;22.40;98623.84;5093210;28;19939;-78
2024/02/16 08:00:32;;;;;;;;;;;;;;;28.18;22.56;98623.41;5093217;28;19962;-78
2024/02/16 08:02:58;;;;;;;;;;;;;;;28.12;23.31;98625.22;5091802;28;19920;-78
2024/02/16 08:05:26;;;;;;;;;;;;;;;28.11;22.69;98618.78;5093099;28;20389;-78
2024/02/16 08:07:53;;;;;;;;;;;;;;;28.35;22.08;98622.91;5095705;28;19920;-78
2024/02/16 08:10:20;;;;;;;;;;;;;;;28.39;22.28;98620.75;5093538;28;19963;-78
2024/02/16 08:12:46;;;;;;;;;;;;;;;28.41;21.85;98620.28;5094150;28;19926;-78
2024/02/16 08:15:12;;;;;;;;;;;;;;;28.30;21.87;98614.97;5112537;28;19923;-78
2024/02/16 08:17:39;;;;;;;;;;;;;;;28.50;22.07;98621.19;5107404;28;19917;-78
2024/02/16 08:20:06;;;;;;;;;;;;;;;28.92;21.52;98621.09;5101036;28;20041;-78
2024/02/16 08:22:32;;;;;;;;;;;;;;;29.07;21.07;98625.84;5116074;28;20297;-78
2024/02/16 08:24:58;;;;;;;;;;;;;;;29.00;21.27;98628.09;5114616;28;19931;-78
2024/02/16 08:27:24;;;;;;;;;;;;;;;28.81;22.19;98631.97;5111201;27;19919;-78
2024/02/16 08:29:53;;;;;;;;;;;;;;;28.78;22.08;98630.84;5108678;28;19996;-78
2024/02/16 08:32:20;;;;;;;;;;;;;;;29.07;21.48;98630.69;5097458;28;20109;-78
2024/02/16 08:34:48;;;;;;;;;;;;;;;29.32;21.01;98633.50;5112442;28;19924;-78
2024/02/16 08:37:15;;;;;;;;;;;;;;;29.33;21.14;98620.94;5114019;28;19927;-78
2024/02/16 08:39:41;;;;;;;;;;;;;;;29.11;21.73;98632.16;5111108;28;19919;-78
2024/02/16 08:42:13;;;;;;;;;;;;;;;29.15;21.17;98634.88;5113560;28;20289;-78
2024/02/16 08:44:40;;;;;;;;;;;;;;;29.25;21.76;98625.25;5106007;28;19927;-78
2024/02/16 08:47:07;;;;;;;;;;;;;;;29.23;22.08;98633.41;5098458;27;19966;-78
2024/02/16 08:49:34;;;;;;;;;;;;;;;29.39;21.58;98630.41;5105420;28;20334;-78
2024/02/16 08:52:00;;;;;;;;;;;;;;;29.04;21.92;98629.56;5113870;28;19992;-78
2024/02/16 08:54:26;;;;;;;;;;;;;;;29.67;21.38;98618.09;5096610;28;19924;-78
2024/02/16 08:56:55;;;;;;;;;;;;;;;29.45;21.69;98630.63;5095629;28;20310;-78
2024/02/16 08:59:21;;;;;;;;;;;;;;;29.32;21.67;98620.16;5109128;28;20320;-78
2024/02/16 09:01:47;;;;;;;;;;;;;;;29.52;20.90;98613.41;5112416;28;19927;-78
2024/02/16 09:04:15;;;;;;;;;;;;;;;29.65;21.74;98611.31;5114075;28;19920;-78
2024/02/16 09:06:41;;;;;;;;;;;;;;;29.41;21.16;98616.59;5109228;28;20499;-78
2024/02/16 09:09:07;;;;;;;;;;;;;;;29.46;21.57;98621.69;5109051;28;19931;-78
2024/02/16 09:11:34;;;;;;;;;;;;;;;29.52;21.87;98613.41;5111409;28;19981;-78
2024/02/16 09:14:00;;;;;;;;;;;;;;;30.12;21.26;98616.88;5113140;28;19926;-78
2024/02/16 09:16:26;;;;;;;;;;;;;;;30.43;20.71;98615.69;5110061;28;20032;-78
2024/02/16 09:18:52;;;;;;;;;;;;;;;30.41;20.69;98611.72;5105040;28;20465;-78
2024/02/16 09:21:19;;;;;;;;;;;;;;;30.15;21.30;98608.25;5108763;28;20010;-78
2024/02/16 09:23:45;;;;;;;;;;;;;;;30.26;21.06;98619.94;5110908;28;19919;-78
2024/02/16 09:26:11;;;;;;;;;;;;;;;30.32;21.24;98618.09;5111122;27;19924;-78
2024/02/16 09:28:41;;;;;;;;;;;;;;;30.68;21.14;98617.50;5107457;28;20288;-79
2024/02/16 09:31:08;;;;;;;;;;;;;;;30.90;20.34;98615.38;5110504;28;19968;-78
2024/02/16 09:33:35;;;;;;;;;;;;;;;30.92;20.28;98612.91;5111631;28;19935;-78
2024/02/16 09:36:01;;;;;;;;;;;;;;;30.36;20.37;98615.16;5112830;28;19960;-78
2024/02/16 09:38:27;;;;;;;;;;;;;;;30.75;20.88;98618.00;5110247;28;19924;-78
2024/02/16 09:40:53;;;;;;;;;;;;;;;31.16;19.67;98613.88;5114261;28;20395;-78
2024/02/16 09:43:29;;;;;;;;;;;;;;;31.21;19.51;98616.09;5110135;28;19946;-79
2024/02/16 09:45:59;;;;;;;;;;;;;;;30.69;20.76;98619.88;5113222;28;19935;-78
2024/02/16 09:48:29;;;;;;;;;;;;;;;31.14;20.61;98615.63;5093013;28;19920;-79
2024/02/16 09:50:57;;;;;;;;;;;;;;;31.37;19.61;98620.69;5107340;27;19950;-78
2024/02/16 09:53:28;;;;;;;;;;;;;;;31.70;20.31;98610.34;5107708;28;19920;-79
2024/02/16 09:55:54;;;;;;;;;;;;;;;30.33;20.97;98611.22;5111801;28;19924;-79
2024/02/16 09:58:20;;;;;;;;;;;;;;;28.63;22.36;98615.59;5102250;27;19922;-78
2024/02/16 10:00:49;;;;;;;;;;;;;;;29.05;22.49;98622.69;5109327;27;19919;-79
2024/02/16 10:03:22;;;;;;;;;;;;;;;29.96;20.94;98623.53;5106311;28;19935;-78
2024/02/16 10:05:49;;;;;;;;;;;;;;;28.64;22.06;98626.44;5104749;28;20389;-78
2024/02/16 10:08:15;;;;;;;;;;;;;;;28.88;22.96;98624.06;5112416;28;19923;-78
2024/02/16 10:10:42;;;;;;;;;;;;;;;30.19;20.34;98611.72;5111361;28;20304;-79
2024/02/16 10:13:08;;;;;;;;;;;;;;;30.55;20.54;98617.59;5110168;28;19927;-78
2024/02/16 10:15:35;;;;;;;;;;;;;;;30.32;20.77;98612.41;5105782;27;20002;-78
2024/02/16 10:18:02;;;;;;;;;;;;;;;29.73;21.34;98607.78;5111587;27;19916;-79
2024/02/16 10:20:28;;;;;;;;;;;;;;;29.86;21.03;98611.34;5113494;27;20222;-78
2024/02/16 10:23:03;;;;;;;;;;;;;;;29.49;21.14;98609.47;5102964;28;19933;-79
2024/02/16 10:25:29;;;;;;;;;;;;;;;28.96;22.84;98616.13;5108252;28;19924;-78
2024/02/16 10:27:58;;;;;;;;;;;;;;;30.44;20.43;98607.94;5108963;28;19922;-79
2024/02/16 10:30:28;;;;;;;;;;;;;;;31.25;20.79;98602.56;5107782;27;19966;-78
2024/02/16 10:32:54;;;;;;;;;;;;;;;31.80;19.27;98597.72;5111581;28;19935;-78
2024/02/16 10:35:21;;;;;;;;;;;;;;;31.90;19.10;98593.59;5110635;28;19915;-79
2024/02/16 10:37:48;;;;;;;;;;;;;;;32.00;19.67;98589.50;5107766;28;19920;-79
2024/02/16 10:40:17;;;;;;;;;;;;;;;30.23;19.80;98591.75;5108815;28;20384;-78
2024/02/16 10:42:45;;;;;;;;;;;;;;;28.08;22.27;98597.09;5111122;28;19920;-79
2024/02/16 10:45:13;;;;;;;;;;;;;;;29.05;21.70;98597.22;5113411;28;20381;-79
2024/02/16 10:47:39;;;;;;;;;;;;;;;30.55;20.36;98580.75;5110928;28;20393;-79
2024/02/16 10:50:06;;;;;;;;;;;;;;;31.45;19.82;98573.75;5113380;28;20377;-79
2024/02/16 10:52:33;;;;;;;;;;;;;;;31.05;20.10;98582.34;5109257;28;20779;-79
2024/02/16 10:55:00;;;;;;;;;;;;;;;31.42;19.77;98574.66;5113077;28;19966;-78
2024/02/16 10:57:26;;;;;;;;;;;;;;;31.75;19.74;98572.00;5108085;28;19923;-79
2024/02/16 10:59:54;;;;;;;;;;;;;;;32.11;19.72;98574.03;5107759;28;20289;-79
2024/02/16 11:02:20;;;;;;;;;;;;;;;32.47;19.34;98576.72;5103795;28;19920;-79
2024/02/16 11:04:49;;;;;;;;;;;;;;;32.93;18.71;98571.66;5109637;28;20309;-79
2024/02/16 11:07:16;;;;;;;;;;;;;;;30.88;19.56;98571.75;5110583;28;20318;-80
2024/02/16 11:09:43;;;;;;;;;;;;;;;28.74;22.07;98565.97;5102911;28;19983;-79
2024/02/16 11:12:17;;;;;;;;;;;;;;;29.95;20.90;98560.44;5107009;28;19919;-79
2024/02/16 11:14:48;;;;;;;;;;;;;;;31.18;19.11;98554.63;5111263;28;20004;-79
2024/02/16 11:17:15;;;;;;;;;;;;;;;32.07;18.90;98554.28;5105342;28;20014;-79
2024/02/16 11:19:42;;;;;;;;;;;;;;;32.71;18.81;98547.13;5099626;28;19927;-79
2024/02/16 11:22:08;;;;;;;;;;;;;;;33.13;18.23;98551.94;5105668;28;20020;-80
2024/02/16 11:24:35;;;;;;;;;;;;;;;33.04;18.18;98547.09;5106352;28;19932;-79
2024/02/16 11:27:02;;;;;;;;;;;;;;;32.93;18.92;98534.66;5103353;28;19916;-79
2024/02/16 11:29:31;;;;;;;;;;;;;;;32.19;18.31;98529.78;5105008;28;19924;-79
2024/02/16 11:31:58;;;;;;;;;;;;;;;30.65;19.68;98537.00;5108434;28;20349;-79
2024/02/16 11:34:25;;;;;;;;;;;;;;;31.00;20.22;98533.97;5107484;27;19920;-79
2024/02/16 11:36:53;;;;;;;;;;;;;;;31.81;18.66;98528.28;5105028;28;19919;-79
2024/02/16 11:39:19;;;;;;;;;;;;;;;32.18;18.76;98537.53;5111912;28;19911;-79
2024/02/16 11:41:45;;;;;;;;;;;;;;;32.06;19.14;98530.78;5108499;28;19943;-79
2024/02/16 11:44:13;;;;;;;;;;;;;;;32.80;18.64;98531.25;5106853;28;19927;-79
2024/02/16 11:46:39;;;;;;;;;;;;;;;33.19;17.70;98528.00;5110359;28;19922;-79
2024/02/16 11:49:06;;;;;;;;;;;;;;;32.69;17.80;98520.44;5104338;28;20370;-79
2024/02/16 11:51:32;;;;;;;;;;;;;;;31.41;18.90;98524.84;5107269;28;19920;-79
2024/02/16 11:53:58;;;;;;;;;;;;;;;30.62;20.10;98526.59;5102644;28;20385;-79
2024/02/16 11:56:25;;;;;;;;;;;;;;;29.26;21.82;98528.66;5108383;28;19927;-79
2024/02/16 11:58:51;;;;;;;;;;;;;;;28.37;22.67;98521.56;5110409;28;19916;-80
2024/02/16 12:01:17;;;;;;;;;;;;;;;30.38;20.93;98519.13;5105698;28;19945;-79
2024/02/16 12:03:43;;;;;;;;;;;;;;;31.71;19.65;98521.06;5105095;28;20479;-79
2024/02/16 12:06:19;;;;;;;;;;;;;;;32.57;18.81;98527.91;5109079;28;19915;-79
2024/02/16 12:08:45;;;;;;;;;;;;;;;31.90;19.31;98531.09;5108974;28;20426;-79
2024/02/16 12:11:11;;;;;;;;;;;;;;;32.44;18.74;98530.16;5103119;28;19920;-79
2024/02/16 12:13:37;;;;;;;;;;;;;;;32.75;18.28;98524.19;5102367;28;19920;-80
2024/02/16 12:16:06;;;;;;;;;;;;;;;32.93;18.61;98526.13;5105614;28;19923;-79
2024/02/16 12:18:32;;;;;;;;;;;;;;;33.49;17.63;98508.16;5110808;28;20376;-80
2024/02/16 12:21:05;;;;;;;;;;;;;;;33.81;17.70;98518.63;5112113;28;19966;-80
2024/02/16 12:23:32;;;;;;;;;;;;;;;31.86;19.08;98516.28;5099876;28;19973;-80
2024/02/16 12:25:59;;;;;;;;;;;;;;;30.08;19.70;98512.22;5102881;28;19920;-80
2024/02/16 12:28:29;;;;;;;;;;;;;;;28.41;22.10;98508.09;5109799;28;20305;-80
2024/02/16 12:30:55;;;;;;;;;;;;;;;26.94;23.63;98507.63;5107299;28;19915;-79
2024/02/16 12:33:24;;;;;;;;;;;;;;;26.84;23.99;98503.84;5106401;28;20022;-79
2024/02/16 12:35:50;;;;;;;;;;;;;;;28.56;21.77;98503.56;5110965;28;19979;-79
2024/02/16 12:38:19;;;;;;;;;;;;;;;30.80;20.52;98505.22;5107894;28;19912;-79
2024/02/16 12:40:47;;;;;;;;;;;;;;;31.56;19.50;98497.41;5111185;28;19971;-79
2024/02/16 12:43:13;;;;;;;;;;;;;;;31.96;18.29;98505.69;5108876;28;19961;-80
2024/02/16 12:45:40;;;;;;;;;;;;;;;32.05;18.50;98505.69;5110862;28;20457;-80
2024/02/16 12:48:06;;;;;;;;;;;;;;;32.78;18.40;98499.66;5109963;28;19968;-79